Konstantinos G — SVA7802 — position and weather

sailwx.info

Track history (hours):
 
Tides and Currents Weather Stations Pressure Air Temp Water Temp Dewpoint Dewpoint Depression Visibility Wind Speed Wind Dir Waves Ship Positions

Konstantinos G

Last reported at 2017-Sep-19 15:00 UTC. Time now 2017-Sep-19 15:21 UTC.
Position N 40°18' E 024°31'.

Length 80 m; draft 4.1 m.

Type: Cargo ship. MMSI: 241526000.

Date/timePositionNaut miles runAvg speedWind from/ knotsBaromVisibWave heightAir tempDewpointWater temp
2017-Sep-19 15:00N 40°18' E 024°31'4 8.5
2017-Sep-19 14:30N 40°14' E 024°31'4 8.4
2017-Sep-19 14:00N 40°10' E 024°32'4 8.6
2017-Sep-19 13:30N 40°05' E 024°33'4 8.6
2017-Sep-19 13:00N 40°01' E 024°33'5 8.5
2017-Sep-19 12:27N 39°57' E 024°34'4 8.3
2017-Sep-19 12:00N 39°53' E 024°34'4 7.9
2017-Sep-19 11:30N 39°49' E 024°34'4 7.3
2017-Sep-19 11:00N 39°45' E 024°35'4 7.3
2017-Sep-19 10:30N 39°42' E 024°36'7 7.6
2017-Sep-19 09:39N 39°35' E 024°36'2 8.0
2017-Sep-19 09:24N 39°33' E 024°37'5 8.1
2017-Sep-19 08:50N 39°29' E 024°37'34 7.9
2017-Sep-19 04:29N 38°54' E 024°43'6 7.2
2017-Sep-19 03:39N 38°48' E 024°43'1 7.6
2017-Sep-19 03:30N 38°47' E 024°43'4 8.0
2017-Sep-19 03:00N 38°43' E 024°43'4 7.9
2017-Sep-19 02:30N 38°39' E 024°42'71 7.5
2017-Sep-18 16:59N 37°38' E 023°57'4 8.5
2017-Sep-18 16:30N 37°38' E 023°52'4 8.4
2017-Sep-18 16:00N 37°39' E 023°47'4 8.4
2017-Sep-18 15:30N 37°41' E 023°42'4 8.3
2017-Sep-18 15:00N 37°44' E 023°39'4 8.3
2017-Sep-18 14:30N 37°48' E 023°37'4 7.6
2017-Sep-18 14:00N 37°50' E 023°33'4 8.5
2017-Sep-18 13:30N 37°50' E 023°27'4 8.7
2017-Sep-18 13:00N 37°51' E 023°22'4 8.9
2017-Sep-18 12:30N 37°52' E 023°16'4 8.9
2017-Sep-18 12:00N 37°53' E 023°11'5 8.4
2017-Sep-18 11:27N 37°54' E 023°05'3 0.1
2017-Sep-17 10:41N 37°55' E 023°01'3 0.2
2017-Sep-16 15:55N 37°54' E 023°05'3 8.0
2017-Sep-16 15:29N 37°53' E 023°09'4 8.1
2017-Sep-16 15:00N 37°52' E 023°14'4 7.9
2017-Sep-16 14:30N 37°52' E 023°19'4 7.8
2017-Sep-16 14:00N 37°51' E 023°24'4 8.0
2017-Sep-16 13:30N 37°50' E 023°29'4 7.8
2017-Sep-16 13:00N 37°49' E 023°33'4 7.9
2017-Sep-16 12:30N 37°47' E 023°38'4 7.2
2017-Sep-16 12:00N 37°45' E 023°42'4 7.6
2017-Sep-16 11:25N 37°42' E 023°45'3 7.0
2017-Sep-16 11:00N 37°40' E 023°48'4 7.6
2017-Sep-16 10:29N 37°39' E 023°53'75 7.0
2017-Sep-15 23:49N 38°43' E 024°43'3 8.2
2017-Sep-15 23:25N 38°46' E 024°43'4 8.2
2017-Sep-15 22:56N 38°50' E 024°43'4 8.2
2017-Sep-15 22:30N 38°53' E 024°43'16 8.2
2017-Sep-15 20:33N 39°09' E 024°40'1 8.2
2017-Sep-15 20:26N 39°10' E 024°40'5 8.3
2017-Sep-15 19:51N 39°15' E 024°39'3 8.6
2017-Sep-15 19:30N 39°18' E 024°39'5 8.8
2017-Sep-15 18:57N 39°23' E 024°38'4 8.7
2017-Sep-15 18:29N 39°27' E 024°37'5 8.8
2017-Sep-15 17:56N 39°31' E 024°37'4 8.4
2017-Sep-15 17:30N 39°35' E 024°36'4 8.2
2017-Sep-15 17:00N 39°39' E 024°36'4 8.3
2017-Sep-15 16:30N 39°43' E 024°36'4 8.2
2017-Sep-15 16:00N 39°47' E 024°35'4 8.0
2017-Sep-15 15:30N 39°51' E 024°35'4 8.1
2017-Sep-15 15:00N 39°55' E 024°34'4 8.1
2017-Sep-15 14:30N 39°60' E 024°34'4 8.0
2017-Sep-15 13:59N 40°04' E 024°33'4 7.9
2017-Sep-15 13:30N 40°07' E 024°33'4 7.4
2017-Sep-15 13:00N 40°11' E 024°33'4 7.3
2017-Sep-15 12:30N 40°15' E 024°32'4 7.4
2017-Sep-15 12:00N 40°18' E 024°32'4 7.9
2017-Sep-15 11:30N 40°22' E 024°31'4 8.1
2017-Sep-15 11:00N 40°26' E 024°31'4 8.1
2017-Sep-15 10:30N 40°30' E 024°30'4 8.3
2017-Sep-15 10:00N 40°34' E 024°30'4 8.4
2017-Sep-15 09:30N 40°39' E 024°29'4 8.6
2017-Sep-15 09:00N 40°43' E 024°28'4 8.4
2017-Sep-15 08:30N 40°47' E 024°28'4 8.1
2017-Sep-15 08:00N 40°51' E 024°29'4 8.1
2017-Sep-15 07:30N 40°55' E 024°29'2 3.1
2017-Sep-15 07:00N 40°57' E 024°28'0 0.0
2017-Sep-15 06:30N 40°57' E 024°28'0 0.0
2017-Sep-15 06:00N 40°57' E 024°28'0 0.0
2017-Sep-15 05:30N 40°57' E 024°28'0 0.0
2017-Sep-15 05:00N 40°57' E 024°28'0 0.0
2017-Sep-15 04:30N 40°57' E 024°28'0 0.0
2017-Sep-15 04:00N 40°57' E 024°28'0 0.0
2017-Sep-15 03:30N 40°57' E 024°28'0 0.0
2017-Sep-15 03:00N 40°57' E 024°28'0 0.0
2017-Sep-15 02:30N 40°57' E 024°28'0 0.0
2017-Sep-15 02:00N 40°57' E 024°28'0 0.0
2017-Sep-15 01:30N 40°57' E 024°28'0 0.0
2017-Sep-15 01:00N 40°57' E 024°28'0 0.0
2017-Sep-15 00:30N 40°57' E 024°28'0 0.0
2017-Sep-15 00:00N 40°57' E 024°28'0 0.0
2017-Sep-14 23:30N 40°57' E 024°28'0 0.0
2017-Sep-14 23:00N 40°57' E 024°28'0 0.0
2017-Sep-14 22:30N 40°57' E 024°28'0 0.0
2017-Sep-14 22:00N 40°57' E 024°28'0 0.0
2017-Sep-14 21:30N 40°57' E 024°28'0 0.0
2017-Sep-14 21:00N 40°57' E 024°28'0 0.0
2017-Sep-14 20:30N 40°57' E 024°28'0 0.0
2017-Sep-14 20:00N 40°57' E 024°28'0 0.0
2017-Sep-14 19:30N 40°57' E 024°28'0 0.0
2017-Sep-14 19:00N 40°57' E 024°28'0 0.0
2017-Sep-14 18:30N 40°57' E 024°28'0 0.0
2017-Sep-14 18:00N 40°57' E 024°28'0 0.0
2017-Sep-14 17:30N 40°57' E 024°28'0 0.0
2017-Sep-14 17:00N 40°57' E 024°28'0 0.0
2017-Sep-14 16:30N 40°57' E 024°28'0 0.0
2017-Sep-14 16:00N 40°57' E 024°28'0 0.0
2017-Sep-14 15:30N 40°57' E 024°28'0 0.0
2017-Sep-14 15:00N 40°57' E 024°28'0 0.0
2017-Sep-14 14:30N 40°57' E 024°28'0 0.0
2017-Sep-14 14:01N 40°57' E 024°28'0 0.0
2017-Sep-14 13:30N 40°57' E 024°28'0 0.0
2017-Sep-14 13:00N 40°57' E 024°28'0 0.0
2017-Sep-14 12:30N 40°57' E 024°28'0 0.0
2017-Sep-14 12:00N 40°57' E 024°28'0 0.0
2017-Sep-14 11:30N 40°57' E 024°28'0 0.0
2017-Sep-14 11:00N 40°57' E 024°28'0 0.0
2017-Sep-14 10:30N 40°57' E 024°28'0 0.0
2017-Sep-14 10:00N 40°57' E 024°28'0 0.0
2017-Sep-14 09:30N 40°57' E 024°28'0 0.0
2017-Sep-14 09:00N 40°57' E 024°28'0 0.0
2017-Sep-14 08:30N 40°57' E 024°28'0 0.0
2017-Sep-14 08:00N 40°57' E 024°28'0 0.0
2017-Sep-14 07:30N 40°57' E 024°28'0 0.0
2017-Sep-14 07:00N 40°57' E 024°28'0 0.0
2017-Sep-14 06:30N 40°57' E 024°28'0 0.0
2017-Sep-14 06:00N 40°57' E 024°28'0 0.0
2017-Sep-14 05:30N 40°57' E 024°28'0 0.0
2017-Sep-14 05:00N 40°57' E 024°28'0 0.0
2017-Sep-14 04:30N 40°57' E 024°28'0 0.0
2017-Sep-14 04:00N 40°57' E 024°28'0 0.0
2017-Sep-14 03:30N 40°57' E 024°28'0 0.0
2017-Sep-14 03:00N 40°57' E 024°28'0 0.0
2017-Sep-14 02:30N 40°57' E 024°28'0 0.0
2017-Sep-14 02:00N 40°57' E 024°28'0 0.0
2017-Sep-14 01:30N 40°57' E 024°28'0 0.0
2017-Sep-14 01:00N 40°57' E 024°28'0 0.0
2017-Sep-14 00:30N 40°57' E 024°28'0 0.0
2017-Sep-14 00:00N 40°57' E 024°28'0 0.0
2017-Sep-13 23:30N 40°57' E 024°28'0 0.0
2017-Sep-13 23:00N 40°57' E 024°28'0 0.0
2017-Sep-13 22:30N 40°57' E 024°28'0 0.0
2017-Sep-13 22:00N 40°57' E 024°28'0 0.0
2017-Sep-13 21:30N 40°57' E 024°28'0 0.0
2017-Sep-13 21:00N 40°57' E 024°28'0 0.0
2017-Sep-13 20:30N 40°57' E 024°28'0 0.0
2017-Sep-13 20:00N 40°57' E 024°28'0 0.0
2017-Sep-13 19:30N 40°57' E 024°28'0 0.0
2017-Sep-13 19:00N 40°57' E 024°28'0 0.0
2017-Sep-13 18:30N 40°57' E 024°28'0 0.0
2017-Sep-13 18:00N 40°57' E 024°28'0 0.0
2017-Sep-13 17:30N 40°57' E 024°28'0 0.0
2017-Sep-13 17:00N 40°57' E 024°28'0 0.0
2017-Sep-13 16:30N 40°57' E 024°28'0 0.0
2017-Sep-13 16:00N 40°57' E 024°28'0 0.0
2017-Sep-13 15:30N 40°57' E 024°28'0 0.0
2017-Sep-13 15:00N 40°57' E 024°28'0 0.0
2017-Sep-13 14:30N 40°57' E 024°28'0 0.0
2017-Sep-13 14:00N 40°57' E 024°28'0 0.0
2017-Sep-13 13:30N 40°57' E 024°28'0 0.0
2017-Sep-13 13:00N 40°57' E 024°28'0 0.0
2017-Sep-13 12:30N 40°57' E 024°28'0 0.0
2017-Sep-13 12:00N 40°57' E 024°28'0 0.0
2017-Sep-13 11:30N 40°57' E 024°28'0 0.0
2017-Sep-13 11:00N 40°57' E 024°28'0 0.0
2017-Sep-13 10:30N 40°57' E 024°28'0 0.0
2017-Sep-13 10:00N 40°57' E 024°28'0 0.0
2017-Sep-13 09:30N 40°57' E 024°28'0 0.0
2017-Sep-13 09:00N 40°57' E 024°28'0 0.0
2017-Sep-13 08:30N 40°57' E 024°28'0 0.0
2017-Sep-13 08:00N 40°57' E 024°28'0 0.0
2017-Sep-13 07:30N 40°57' E 024°28'0 0.0
2017-Sep-13 07:00N 40°57' E 024°28'0 0.0
2017-Sep-13 06:30N 40°57' E 024°28'0 0.0
2017-Sep-13 06:00N 40°57' E 024°28'0 0.0
2017-Sep-13 05:30N 40°57' E 024°28'0 0.0
2017-Sep-13 05:00N 40°57' E 024°28'0 0.0
2017-Sep-13 04:30N 40°57' E 024°28'1 1.1
2017-Sep-13 04:00N 40°56' E 024°29'3 6.2
2017-Sep-13 03:30N 40°53' E 024°28'4 7.1
2017-Sep-13 03:00N 40°50' E 024°27'4 7.3
2017-Sep-13 02:30N 40°46' E 024°25'4 7.3
2017-Sep-13 02:00N 40°43' E 024°24'4 7.1
2017-Sep-13 01:30N 40°39' E 024°24'4 7.1
2017-Sep-13 01:00N 40°36' E 024°24'12 7.1
2017-Sep-12 23:21N 40°24' E 024°26'3 4.9
2017-Sep-12 22:40N 40°22' E 024°29'1 7.1
2017-Sep-12 22:30N 40°21' E 024°27'3 6.0
2017-Sep-12 22:00N 40°18' E 024°26'4 7.2
2017-Sep-12 21:30N 40°15' E 024°27'4 7.2
2017-Sep-12 20:54N 40°11' E 024°27'26 8.1
2017-Sep-12 17:43N 39°45' E 024°25'3 8.8
2017-Sep-12 17:20N 39°41' E 024°24'126 7.0
2017-Sep-11 23:21N 37°37' E 023°56'5 7.4
2017-Sep-11 22:41N 37°39' E 023°50'1 7.1
2017-Sep-11 22:30N 37°39' E 023°49'4 7.5
2017-Sep-11 22:00N 37°40' E 023°44'3 6.8
2017-Sep-11 21:30N 37°42' E 023°41'3 6.7
2017-Sep-11 21:00N 37°45' E 023°39'4 7.1
2017-Sep-11 20:30N 37°48' E 023°36'4 7.5
2017-Sep-11 20:00N 37°49' E 023°32'4 8.0
2017-Sep-11 19:30N 37°50' E 023°27'4 8.1
2017-Sep-11 19:00N 37°51' E 023°22'6 8.2
2017-Sep-11 18:13N 37°52' E 023°14'8 7.7
2017-Sep-11 17:09N 37°54' E 023°04'0 0.0
2017-Sep-11 04:44N 37°54' E 023°04'8 7.8
2017-Sep-11 03:46N 37°53' E 023°14'2 7.9
2017-Sep-11 03:28N 37°53' E 023°16'4 7.7
2017-Sep-11 03:00N 37°52' E 023°21'4 7.7
2017-Sep-11 02:30N 37°51' E 023°26'4 7.7
2017-Sep-11 02:00N 37°50' E 023°30'4 7.6
2017-Sep-11 01:30N 37°50' E 023°35'4 7.3
2017-Sep-11 01:00N 37°49' E 023°40'4 7.6
2017-Sep-11 00:30N 37°46' E 023°42'4 7.4
2017-Sep-11 00:00N 37°42' E 023°44'  
Track history (hours):
 
Tides and Currents Weather Stations Pressure Air Temp Water Temp Dewpoint Dewpoint Depression Visibility Wind Speed Wind Dir Waves Ship Positions

Konstantinos G

Last reported at 2017-Sep-19 15:00 UTC. Time now 2017-Sep-19 15:21 UTC.
Position N 40°18' E 024°31'.

Length 80 m; draft 4.1 m.

Type: Cargo ship. MMSI: 241526000.

Date/timePositionNaut miles runAvg speedWind from/ knotsBaromVisibWave heightAir tempDewpointWater temp
2017-Sep-19 15:00N 40°18' E 024°31'4 8.5
2017-Sep-19 14:30N 40°14' E 024°31'4 8.4
2017-Sep-19 14:00N 40°10' E 024°32'4 8.6
2017-Sep-19 13:30N 40°05' E 024°33'4 8.6
2017-Sep-19 13:00N 40°01' E 024°33'5 8.5
2017-Sep-19 12:27N 39°57' E 024°34'4 8.3
2017-Sep-19 12:00N 39°53' E 024°34'4 7.9
2017-Sep-19 11:30N 39°49' E 024°34'4 7.3
2017-Sep-19 11:00N 39°45' E 024°35'4 7.3
2017-Sep-19 10:30N 39°42' E 024°36'7 7.6
2017-Sep-19 09:39N 39°35' E 024°36'2 8.0
2017-Sep-19 09:24N 39°33' E 024°37'5 8.1
2017-Sep-19 08:50N 39°29' E 024°37'34 7.9
2017-Sep-19 04:29N 38°54' E 024°43'6 7.2
2017-Sep-19 03:39N 38°48' E 024°43'1 7.6
2017-Sep-19 03:30N 38°47' E 024°43'4 8.0
2017-Sep-19 03:00N 38°43' E 024°43'4 7.9
2017-Sep-19 02:30N 38°39' E 024°42'71 7.5
2017-Sep-18 16:59N 37°38' E 023°57'4 8.5
2017-Sep-18 16:30N 37°38' E 023°52'4 8.4
2017-Sep-18 16:00N 37°39' E 023°47'4 8.4
2017-Sep-18 15:30N 37°41' E 023°42'4 8.3
2017-Sep-18 15:00N 37°44' E 023°39'4 8.3
2017-Sep-18 14:30N 37°48' E 023°37'4 7.6
2017-Sep-18 14:00N 37°50' E 023°33'4 8.5
2017-Sep-18 13:30N 37°50' E 023°27'4 8.7
2017-Sep-18 13:00N 37°51' E 023°22'4 8.9
2017-Sep-18 12:30N 37°52' E 023°16'4 8.9
2017-Sep-18 12:00N 37°53' E 023°11'5 8.4
2017-Sep-18 11:27N 37°54' E 023°05'3 0.1
2017-Sep-17 10:41N 37°55' E 023°01'3 0.2
2017-Sep-16 15:55N 37°54' E 023°05'3 8.0
2017-Sep-16 15:29N 37°53' E 023°09'4 8.1
2017-Sep-16 15:00N 37°52' E 023°14'4 7.9
2017-Sep-16 14:30N 37°52' E 023°19'4 7.8
2017-Sep-16 14:00N 37°51' E 023°24'4 8.0
2017-Sep-16 13:30N 37°50' E 023°29'4 7.8
2017-Sep-16 13:00N 37°49' E 023°33'4 7.9
2017-Sep-16 12:30N 37°47' E 023°38'4 7.2
2017-Sep-16 12:00N 37°45' E 023°42'4 7.6
2017-Sep-16 11:25N 37°42' E 023°45'3 7.0
2017-Sep-16 11:00N 37°40' E 023°48'4 7.6
2017-Sep-16 10:29N 37°39' E 023°53'75 7.0
2017-Sep-15 23:49N 38°43' E 024°43'3 8.2
2017-Sep-15 23:25N 38°46' E 024°43'4 8.2
2017-Sep-15 22:56N 38°50' E 024°43'4 8.2
2017-Sep-15 22:30N 38°53' E 024°43'16 8.2
2017-Sep-15 20:33N 39°09' E 024°40'1 8.2
2017-Sep-15 20:26N 39°10' E 024°40'5 8.3
2017-Sep-15 19:51N 39°15' E 024°39'3 8.6
2017-Sep-15 19:30N 39°18' E 024°39'5 8.8
2017-Sep-15 18:57N 39°23' E 024°38'4 8.7
2017-Sep-15 18:29N 39°27' E 024°37'5 8.8
2017-Sep-15 17:56N 39°31' E 024°37'4 8.4
2017-Sep-15 17:30N 39°35' E 024°36'4 8.2
2017-Sep-15 17:00N 39°39' E 024°36'4 8.3
2017-Sep-15 16:30N 39°43' E 024°36'4 8.2
2017-Sep-15 16:00N 39°47' E 024°35'4 8.0
2017-Sep-15 15:30N 39°51' E 024°35'4 8.1
2017-Sep-15 15:00N 39°55' E 024°34'4 8.1
2017-Sep-15 14:30N 39°60' E 024°34'4 8.0
2017-Sep-15 13:59N 40°04' E 024°33'4 7.9
2017-Sep-15 13:30N 40°07' E 024°33'4 7.4
2017-Sep-15 13:00N 40°11' E 024°33'4 7.3
2017-Sep-15 12:30N 40°15' E 024°32'4 7.4
2017-Sep-15 12:00N 40°18' E 024°32'4 7.9
2017-Sep-15 11:30N 40°22' E 024°31'4 8.1
2017-Sep-15 11:00N 40°26' E 024°31'4 8.1
2017-Sep-15 10:30N 40°30' E 024°30'4 8.3
2017-Sep-15 10:00N 40°34' E 024°30'4 8.4
2017-Sep-15 09:30N 40°39' E 024°29'4 8.6
2017-Sep-15 09:00N 40°43' E 024°28'4 8.4
2017-Sep-15 08:30N 40°47' E 024°28'4 8.1
2017-Sep-15 08:00N 40°51' E 024°29'4 8.1
2017-Sep-15 07:30N 40°55' E 024°29'2 3.1
2017-Sep-15 07:00N 40°57' E 024°28'0 0.0
2017-Sep-15 06:30N 40°57' E 024°28'0 0.0
2017-Sep-15 06:00N 40°57' E 024°28'0 0.0
2017-Sep-15 05:30N 40°57' E 024°28'0 0.0
2017-Sep-15 05:00N 40°57' E 024°28'0 0.0
2017-Sep-15 04:30N 40°57' E 024°28'0 0.0
2017-Sep-15 04:00N 40°57' E 024°28'0 0.0
2017-Sep-15 03:30N 40°57' E 024°28'0 0.0
2017-Sep-15 03:00N 40°57' E 024°28'0 0.0
2017-Sep-15 02:30N 40°57' E 024°28'0 0.0
2017-Sep-15 02:00N 40°57' E 024°28'0 0.0
2017-Sep-15 01:30N 40°57' E 024°28'0 0.0
2017-Sep-15 01:00N 40°57' E 024°28'0 0.0
2017-Sep-15 00:30N 40°57' E 024°28'0 0.0
2017-Sep-15 00:00N 40°57' E 024°28'0 0.0
2017-Sep-14 23:30N 40°57' E 024°28'0 0.0
2017-Sep-14 23:00N 40°57' E 024°28'0 0.0
2017-Sep-14 22:30N 40°57' E 024°28'0 0.0
2017-Sep-14 22:00N 40°57' E 024°28'0 0.0
2017-Sep-14 21:30N 40°57' E 024°28'0 0.0
2017-Sep-14 21:00N 40°57' E 024°28'0 0.0
2017-Sep-14 20:30N 40°57' E 024°28'0 0.0
2017-Sep-14 20:00N 40°57' E 024°28'0 0.0
2017-Sep-14 19:30N 40°57' E 024°28'0 0.0
2017-Sep-14 19:00N 40°57' E 024°28'0 0.0
2017-Sep-14 18:30N 40°57' E 024°28'0 0.0
2017-Sep-14 18:00N 40°57' E 024°28'0 0.0
2017-Sep-14 17:30N 40°57' E 024°28'0 0.0
2017-Sep-14 17:00N 40°57' E 024°28'0 0.0
2017-Sep-14 16:30N 40°57' E 024°28'0 0.0
2017-Sep-14 16:00N 40°57' E 024°28'0 0.0
2017-Sep-14 15:30N 40°57' E 024°28'0 0.0
2017-Sep-14 15:00N 40°57' E 024°28'0 0.0
2017-Sep-14 14:30N 40°57' E 024°28'0 0.0
2017-Sep-14 14:01N 40°57' E 024°28'0 0.0
2017-Sep-14 13:30N 40°57' E 024°28'0 0.0
2017-Sep-14 13:00N 40°57' E 024°28'0 0.0
2017-Sep-14 12:30N 40°57' E 024°28'0 0.0
2017-Sep-14 12:00N 40°57' E 024°28'0 0.0
2017-Sep-14 11:30N 40°57' E 024°28'0 0.0
2017-Sep-14 11:00N 40°57' E 024°28'0 0.0
2017-Sep-14 10:30N 40°57' E 024°28'0 0.0
2017-Sep-14 10:00N 40°57' E 024°28'0 0.0
2017-Sep-14 09:30N 40°57' E 024°28'0 0.0
2017-Sep-14 09:00N 40°57' E 024°28'0 0.0
2017-Sep-14 08:30N 40°57' E 024°28'0 0.0
2017-Sep-14 08:00N 40°57' E 024°28'0 0.0
2017-Sep-14 07:30N 40°57' E 024°28'0 0.0
2017-Sep-14 07:00N 40°57' E 024°28'0 0.0
2017-Sep-14 06:30N 40°57' E 024°28'0 0.0
2017-Sep-14 06:00N 40°57' E 024°28'0 0.0
2017-Sep-14 05:30N 40°57' E 024°28'0 0.0
2017-Sep-14 05:00N 40°57' E 024°28'0 0.0
2017-Sep-14 04:30N 40°57' E 024°28'0 0.0
2017-Sep-14 04:00N 40°57' E 024°28'0 0.0
2017-Sep-14 03:30N 40°57' E 024°28'0 0.0
2017-Sep-14 03:00N 40°57' E 024°28'0 0.0
2017-Sep-14 02:30N 40°57' E 024°28'0 0.0
2017-Sep-14 02:00N 40°57' E 024°28'0 0.0
2017-Sep-14 01:30N 40°57' E 024°28'0 0.0
2017-Sep-14 01:00N 40°57' E 024°28'0 0.0
2017-Sep-14 00:30N 40°57' E 024°28'0 0.0
2017-Sep-14 00:00N 40°57' E 024°28'0 0.0
2017-Sep-13 23:30N 40°57' E 024°28'0 0.0
2017-Sep-13 23:00N 40°57' E 024°28'0 0.0
2017-Sep-13 22:30N 40°57' E 024°28'0 0.0
2017-Sep-13 22:00N 40°57' E 024°28'0 0.0
2017-Sep-13 21:30N 40°57' E 024°28'0 0.0
2017-Sep-13 21:00N 40°57' E 024°28'0 0.0
2017-Sep-13 20:30N 40°57' E 024°28'0 0.0
2017-Sep-13 20:00N 40°57' E 024°28'0 0.0
2017-Sep-13 19:30N 40°57' E 024°28'0 0.0
2017-Sep-13 19:00N 40°57' E 024°28'0 0.0
2017-Sep-13 18:30N 40°57' E 024°28'0 0.0
2017-Sep-13 18:00N 40°57' E 024°28'0 0.0
2017-Sep-13 17:30N 40°57' E 024°28'0 0.0
2017-Sep-13 17:00N 40°57' E 024°28'0 0.0
2017-Sep-13 16:30N 40°57' E 024°28'0 0.0
2017-Sep-13 16:00N 40°57' E 024°28'0 0.0
2017-Sep-13 15:30N 40°57' E 024°28'0 0.0
2017-Sep-13 15:00N 40°57' E 024°28'0 0.0
2017-Sep-13 14:30N 40°57' E 024°28'0 0.0
2017-Sep-13 14:00N 40°57' E 024°28'0 0.0
2017-Sep-13 13:30N 40°57' E 024°28'0 0.0
2017-Sep-13 13:00N 40°57' E 024°28'0 0.0
2017-Sep-13 12:30N 40°57' E 024°28'0 0.0
2017-Sep-13 12:00N 40°57' E 024°28'0 0.0
2017-Sep-13 11:30N 40°57' E 024°28'0 0.0
2017-Sep-13 11:00N 40°57' E 024°28'0 0.0
2017-Sep-13 10:30N 40°57' E 024°28'0 0.0
2017-Sep-13 10:00N 40°57' E 024°28'0 0.0
2017-Sep-13 09:30N 40°57' E 024°28'0 0.0
2017-Sep-13 09:00N 40°57' E 024°28'0 0.0
2017-Sep-13 08:30N 40°57' E 024°28'0 0.0
2017-Sep-13 08:00N 40°57' E 024°28'0 0.0
2017-Sep-13 07:30N 40°57' E 024°28'0 0.0
2017-Sep-13 07:00N 40°57' E 024°28'0 0.0
2017-Sep-13 06:30N 40°57' E 024°28'0 0.0
2017-Sep-13 06:00N 40°57' E 024°28'0 0.0
2017-Sep-13 05:30N 40°57' E 024°28'0 0.0
2017-Sep-13 05:00N 40°57' E 024°28'0 0.0
2017-Sep-13 04:30N 40°57' E 024°28'1 1.1
2017-Sep-13 04:00N 40°56' E 024°29'3 6.2
2017-Sep-13 03:30N 40°53' E 024°28'4 7.1
2017-Sep-13 03:00N 40°50' E 024°27'4 7.3
2017-Sep-13 02:30N 40°46' E 024°25'4 7.3
2017-Sep-13 02:00N 40°43' E 024°24'4 7.1
2017-Sep-13 01:30N 40°39' E 024°24'4 7.1
2017-Sep-13 01:00N 40°36' E 024°24'12 7.1
2017-Sep-12 23:21N 40°24' E 024°26'3 4.9
2017-Sep-12 22:40N 40°22' E 024°29'1 7.1
2017-Sep-12 22:30N 40°21' E 024°27'3 6.0
2017-Sep-12 22:00N 40°18' E 024°26'4 7.2
2017-Sep-12 21:30N 40°15' E 024°27'4 7.2
2017-Sep-12 20:54N 40°11' E 024°27'26 8.1
2017-Sep-12 17:43N 39°45' E 024°25'3 8.8
2017-Sep-12 17:20N 39°41' E 024°24'126 7.0
2017-Sep-11 23:21N 37°37' E 023°56'5 7.4
2017-Sep-11 22:41N 37°39' E 023°50'1 7.1
2017-Sep-11 22:30N 37°39' E 023°49'4 7.5
2017-Sep-11 22:00N 37°40' E 023°44'3 6.8
2017-Sep-11 21:30N 37°42' E 023°41'3 6.7
2017-Sep-11 21:00N 37°45' E 023°39'4 7.1
2017-Sep-11 20:30N 37°48' E 023°36'4 7.5
2017-Sep-11 20:00N 37°49' E 023°32'4 8.0
2017-Sep-11 19:30N 37°50' E 023°27'4 8.1
2017-Sep-11 19:00N 37°51' E 023°22'6 8.2
2017-Sep-11 18:13N 37°52' E 023°14'8 7.7
2017-Sep-11 17:09N 37°54' E 023°04'0 0.0
2017-Sep-11 04:44N 37°54' E 023°04'8 7.8
2017-Sep-11 03:46N 37°53' E 023°14'2 7.9
2017-Sep-11 03:28N 37°53' E 023°16'4 7.7
2017-Sep-11 03:00N 37°52' E 023°21'4 7.7
2017-Sep-11 02:30N 37°51' E 023°26'4 7.7
2017-Sep-11 02:00N 37°50' E 023°30'4 7.6
2017-Sep-11 01:30N 37°50' E 023°35'4 7.3
2017-Sep-11 01:00N 37°49' E 023°40'4 7.6
2017-Sep-11 00:30N 37°46' E 023°42'4 7.4
2017-Sep-11 00:00N 37°42' E 023°44'  

Dump ship's entire track history